CST,Max TemperatureF,Mean TemperatureF,Min TemperatureF,Max Dew PointF,MeanDew PointF,Min DewpointF,Max Humidity, Mean Humidity, Min Humidity, Max Sea Level PressureIn, Mean Sea Level PressureIn, Min Sea Level PressureIn, Max VisibilityMiles, Mean VisibilityMiles, Min VisibilityMiles, Max Wind SpeedMPH, Mean Wind SpeedMPH, Max Gust SpeedMPH,PrecipitationIn, CloudCover, Events, WindDirDegrees
2011-12-1,42,35,28,32,26,23,93,75,49,30.30,30.22,30.15,10,10,7,10,5,,0.00,3,Rain,228
2011-12-2,35,30,24,32,28,21,100,87,75,30.47,30.40,30.33,10,9,2,15,7,,0.01,2,Snow,118
2011-12-3,46,40,33,43,38,32,93,87,71,30.27,30.15,29.92,10,6,2,24,13,31,0.60,6,Rain,172
2011-12-4,50,42,33,45,36,30,93,88,81,30.22,30.00,29.82,10,8,2,24,17,32,0.00,8,Rain,266
2011-12-5,35,34,32,33,30,28,100,91,81,30.31,30.28,30.24,10,8,3,15,9,22,0.00,8,Rain,348
2011-12-6,32,30,27,30,24,20,92,77,65,30.30,30.25,30.18,10,10,10,18,10,24,0.00,8,,36
2011-12-7,32,26,21,26,22,18,93,82,68,30.13,30.06,29.98,10,10,7,18,10,25,0.00,4,,255
2011-12-8,33,29,25,29,25,23,94,86,72,30.23,30.18,30.12,10,9,7,8,5,,0.00,7,,256
2011-12-9,27,22,17,27,16,9,95,75,50,30.39,30.28,30.20,10,9,3,14,9,17,0.00,4,Snow,295
2011-12-10,25,16,8,16,9,6,90,73,52,30.51,30.46,30.42,10,10,10,15,8,20,0.00,1,,241
2011-12-11,42,32,22,32,26,20,96,82,66,30.40,30.36,30.31,10,10,7,20,12,23,0.00,0,,187
2011-12-12,44,34,24,32,27,23,96,83,59,30.37,30.34,30.32,10,10,7,12,7,,0.00,3,,167
2011-12-13,42,38,34,36,32,31,94,83,68,30.38,30.34,30.29,10,10,5,7,4,,0.00,8,,166
2011-12-14,51,44,37,51,44,38,100,98,97,30.20,29.94,29.70,10,4,1,20,12,26,0.99,8,Rain-Thunderstorm,174
2011-12-15,54,43,32,53,35,24,98,84,73,30.21,29.90,29.63,10,10,5,31,19,41,0.00,8,Rain,275
2011-12-16,32,27,22,27,23,20,92,83,65,30.40,30.34,30.27,10,10,10,12,7,,0.00,1,,292
2011-12-17,30,26,18,29,26,18,100,96,87,30.34,30.25,30.17,10,5,1,9,5,,0.00,8,Snow,199
2011-12-18,39,24,9,36,24,8,100,93,85,30.21,30.10,29.91,10,5,0,16,4,,0.02,3,Fog,185
2011-12-19,45,40,34,39,36,31,95,85,75,30.17,29.97,29.85,10,10,10,16,11,20,0.00,4,,290
2011-12-20,37,34,32,35,32,30,100,90,79,30.17,29.99,29.74,10,8,2,10,8,,0.01,6,Rain,64
2011-12-21,37,34,32,36,35,32,100,97,88,29.93,29.78,29.67,10,5,0,16,6,21,0.01,7,Rain,248
2011-12-22,35,32,30,34,32,29,100,95,85,30.18,30.06,29.93,10,6,2,15,7,21,0.00,6,,4
2011-12-23,30,24,19,25,21,16,91,84,72,30.36,30.28,30.20,10,10,10,18,9,16,0.00,2,,258
2011-12-24,37,28,18,31,25,18,96,88,73,30.30,30.24,30.18,10,10,7,18,8,,0.00,0,,207
2011-12-25,43,36,28,29,28,26,92,77,52,30.31,30.16,30.06,10,10,10,22,13,30,0.00,0,,272
2011-12-26,42,32,22,32,27,21,99,86,65,30.31,30.17,30.00,10,10,10,24,8,29,0.00,1,,187
2011-12-27,38,33,28,33,30,22,100,86,69,29.95,29.72,29.62,10,9,5,23,9,31,0.00,6,,293
2011-12-28,30,25,20,28,21,16,94,82,71,30.07,29.99,29.84,10,10,10,13,5,,0.00,4,,167
2011-12-29,46,38,30,34,31,29,98,85,62,29.77,29.63,29.52,10,10,7,24,10,30,0.00,2,,221
2011-12-30,41,36,32,40,35,32,99,96,91,29.84,29.60,29.42,10,6,1,18,10,24,0.20,8,Rain,51
2011-12-31,39,34,29,38,34,29,100,97,93,30.00,29.85,29.60,10,5,0,28,10,37,0.00,6,Fog,173